Time;durP1;ratioP1;P1;durP2;ratioP2;P2;SDS_P1;SDS_P2;PMS_P1;PMS_P2;Temp;Humidity;BMP_temperature;BMP_pressure;BME280_temperature;BME280_humidity;BME280_pressure;Samples;Min_cycle;Max_cycle;Signal;HPM_P1;HPM_P2
2021/03/07 00:00:15;;;;;;;28.42;18.15;;;;;;;5.21;100.00;102695.53;4898914;29;20069;-75
2021/03/07 00:03:01;;;;;;;25.90;17.65;;;;;;;5.13;100.00;102689.19;4899061;29;20045;-74
2021/03/07 00:05:46;;;;;;;29.63;19.35;;;;;;;4.71;100.00;102687.63;4897845;29;20499;-74
2021/03/07 00:08:38;;;;;;;34.17;19.80;;;;;;;4.87;100.00;102683.03;4898145;29;20096;-74
2021/03/07 00:11:24;;;;;;;28.20;19.23;;;;;;;5.24;100.00;102693.06;4897725;29;20370;-74
2021/03/07 00:14:10;;;;;;;31.83;21.00;;;;;;;5.04;100.00;102683.66;4898743;29;20028;-74
2021/03/07 00:16:55;;;;;;;29.90;20.63;;;;;;;5.06;100.00;102676.78;4885171;29;20107;-74
2021/03/07 00:19:41;;;;;;;28.23;19.60;;;;;;;4.99;100.00;102686.09;4885081;29;20031;-74
2021/03/07 00:22:27;;;;;;;33.85;21.55;;;;;;;5.05;100.00;102681.13;4897662;29;20068;-75
2021/03/07 00:25:15;;;;;;;30.15;20.23;;;;;;;5.12;100.00;102680.53;4900293;29;20028;-74
2021/03/07 00:28:01;;;;;;;28.05;19.80;;;;;;;5.21;100.00;102682.56;4900932;29;20430;-74
2021/03/07 00:30:47;;;;;;;27.50;19.02;;;;;;;5.35;100.00;102682.19;4901267;29;20115;-74
2021/03/07 00:33:33;;;;;;;31.95;21.10;;;;;;;5.33;100.00;102678.69;4901745;29;20436;-74
2021/03/07 00:36:18;;;;;;;30.65;20.27;;;;;;;4.95;100.00;102678.16;4887889;29;20036;-74
2021/03/07 00:39:05;;;;;;;32.53;21.10;;;;;;;5.05;100.00;102669.84;4888737;29;20350;-74
2021/03/07 00:41:50;;;;;;;31.02;20.40;;;;;;;5.03;100.00;102674.97;4900334;29;20088;-74
2021/03/07 00:44:36;;;;;;;29.33;19.92;;;;;;;5.12;100.00;102674.44;4902634;29;20039;-75
2021/03/07 00:47:22;;;;;;;30.08;19.98;;;;;;;4.99;100.00;102664.44;4900219;29;20107;-75
2021/03/07 00:50:21;;;;;;;30.65;19.92;;;;;;;4.38;100.00;102661.28;4900656;29;20047;-74
2021/03/07 00:53:06;;;;;;;31.83;20.25;;;;;;;4.87;100.00;102666.59;4886878;29;20028;-74
2021/03/07 00:55:52;;;;;;;31.48;20.13;;;;;;;5.10;100.00;102665.69;4900195;29;20092;-74
2021/03/07 00:58:38;;;;;;;35.25;22.30;;;;;;;4.95;100.00;102660.84;4902052;29;20103;-75
2021/03/07 01:01:24;;;;;;;31.58;20.58;;;;;;;5.21;100.00;102659.16;4900663;29;20060;-74
2021/03/07 01:04:09;;;;;;;30.05;21.15;;;;;;;4.82;100.00;102658.63;4900274;29;20048;-74
2021/03/07 01:06:55;;;;;;;30.58;21.65;;;;;;;5.19;100.00;102655.66;4901781;29;20024;-73
2021/03/07 01:09:41;;;;;;;34.67;22.25;;;;;;;4.94;100.00;102652.97;4900348;29;20043;-74
2021/03/07 01:12:27;;;;;;;32.58;22.65;;;;;;;5.10;100.00;102643.19;4900080;29;20430;-74
2021/03/07 01:15:13;;;;;;;29.92;21.05;;;;;;;5.04;100.00;102642.09;4887835;29;20028;-75
2021/03/07 01:17:59;;;;;;;34.17;21.75;;;;;;;5.18;100.00;102646.94;4899930;29;20028;-75
2021/03/07 01:20:46;;;;;;;34.78;23.30;;;;;;;5.21;100.00;102644.47;4900701;29;20028;-74
2021/03/07 01:23:32;;;;;;;34.90;21.38;;;;;;;5.33;100.00;102644.88;4899468;29;20450;-74
2021/03/07 01:26:19;;;;;;;37.65;23.67;;;;;;;4.94;100.00;102645.19;4900984;29;20041;-74
2021/03/07 01:29:04;;;;;;;34.72;22.52;;;;;;;5.17;100.00;102637.41;4900730;29;20037;-75
2021/03/07 01:31:51;;;;;;;38.40;23.02;;;;;;;5.05;100.00;102630.88;4887600;29;20111;-75
2021/03/07 01:34:36;;;;;;;33.72;23.15;;;;;;;4.86;100.00;102637.13;4899904;29;20032;-76
2021/03/07 01:37:22;;;;;;;35.92;23.52;;;;;;;4.97;100.00;102628.03;4900900;29;20032;-74
2021/03/07 01:40:11;;;;;;;36.15;23.75;;;;;;;4.99;100.00;102631.53;4900244;29;20029;-74
2021/03/07 01:42:59;;;;;;;36.65;24.83;;;;;;;5.20;100.00;102624.47;4900170;29;20474;-74
2021/03/07 01:45:45;;;;;;;34.63;22.42;;;;;;;5.07;100.00;102624.91;4887075;29;20051;-74
2021/03/07 01:48:31;;;;;;;36.08;23.95;;;;;;;5.27;100.00;102623.88;4899492;29;20371;-74
2021/03/07 01:51:17;;;;;;;35.33;23.67;;;;;;;5.38;100.00;102621.63;4901158;29;20076;-74
2021/03/07 01:54:03;;;;;;;33.83;22.77;;;;;;;4.74;100.00;102623.72;4886935;29;20417;-74
2021/03/07 01:56:52;;;;;;;37.08;24.38;;;;;;;5.06;100.00;102620.53;4900420;29;20088;-74
2021/03/07 01:59:40;;;;;;;34.45;23.27;;;;;;;5.22;100.00;102615.03;4899525;29;20522;-74
2021/03/07 02:02:26;;;;;;;33.88;22.17;;;;;;;4.69;100.00;102606.19;4899222;29;20388;-75
2021/03/07 02:05:14;;;;;;;38.50;23.67;;;;;;;4.87;100.00;102606.88;4886137;29;20029;-75
2021/03/07 02:08:01;;;;;;;37.05;25.80;;;;;;;4.86;100.00;102605.06;4899568;29;20407;-74
2021/03/07 02:10:53;;;;;;;37.65;25.13;;;;;;;4.94;100.00;102607.13;4886212;29;20509;-75
2021/03/07 02:13:41;;;;;;;36.95;24.13;;;;;;;5.31;100.00;102604.97;4900281;29;20032;-74
2021/03/07 02:16:27;;;;;;;36.25;25.70;;;;;;;5.20;100.00;102603.69;4899143;29;20124;-74
2021/03/07 02:19:17;;;;;;;37.92;24.75;;;;;;;5.11;100.00;102598.19;4899094;29;20034;-75
2021/03/07 02:22:07;;;;;;;43.78;26.77;;;;;;;4.70;100.00;102602.75;4899541;29;20036;-75
2021/03/07 02:24:53;;;;;;;41.13;27.17;;;;;;;4.93;100.00;102592.38;4898739;29;20413;-74
2021/03/07 02:27:39;;;;;;;37.80;25.05;;;;;;;4.76;100.00;102590.91;4898950;29;20589;-73
2021/03/07 02:30:26;;;;;;;42.55;27.00;;;;;;;4.69;100.00;102594.09;4898843;29;20043;-75
2021/03/07 02:33:22;;;;;;;40.42;27.42;;;;;;;4.78;100.00;102588.34;4898914;29;20123;-73
2021/03/07 02:36:20;;;;;;;40.95;26.77;;;;;;;4.65;100.00;102591.34;4885721;29;20054;-73
2021/03/07 02:39:08;;;;;;;43.72;28.23;;;;;;;4.84;100.00;102586.88;4899109;29;20454;-74
2021/03/07 02:41:59;;;;;;;43.10;28.55;;;;;;;4.95;100.00;102576.84;4898287;29;20121;-74
2021/03/07 02:44:51;;;;;;;45.05;28.83;;;;;;;4.86;100.00;102577.41;4898709;29;20036;-74
2021/03/07 02:47:39;;;;;;;43.58;28.17;;;;;;;4.90;100.00;102575.78;4897936;29;20036;-74
2021/03/07 02:50:30;;;;;;;41.92;26.25;;;;;;;4.85;100.00;102588.63;4898965;29;20131;-74
2021/03/07 02:53:25;;;;;;;43.15;27.23;;;;;;;4.35;100.00;102583.31;4897852;29;20032;-74
2021/03/07 02:56:17;;;;;;;42.72;26.50;;;;;;;4.61;100.00;102579.97;4898781;29;20445;-73
2021/03/07 02:59:10;;;;;;;39.38;26.08;;;;;;;4.31;100.00;102577.97;4898567;29;20036;-74
2021/03/07 03:02:00;;;;;;;38.65;26.15;;;;;;;4.83;100.00;102581.63;4900136;29;20049;-73
2021/03/07 03:04:47;;;;;;;41.97;28.13;;;;;;;5.11;100.00;102574.81;4898242;29;20047;-73
2021/03/07 03:07:34;;;;;;;40.63;27.25;;;;;;;5.04;100.00;102578.06;4899212;29;20395;-74
2021/03/07 03:10:21;;;;;;;44.83;28.90;;;;;;;4.73;100.00;102576.91;4898870;29;20034;-74
2021/03/07 03:13:11;;;;;;;39.47;27.50;;;;;;;5.08;100.00;102574.75;4885371;29;20024;-74
2021/03/07 03:15:58;;;;;;;42.53;27.63;;;;;;;4.85;100.00;102583.44;4886137;29;20446;-74
2021/03/07 03:18:45;;;;;;;39.55;26.77;;;;;;;4.74;100.00;102582.16;4897797;29;20466;-74
2021/03/07 03:21:32;;;;;;;44.10;28.05;;;;;;;4.78;100.00;102586.63;4898112;29;20048;-74
2021/03/07 03:24:18;;;;;;;42.67;28.65;;;;;;;5.05;100.00;102582.41;4897552;29;20036;-74
2021/03/07 03:27:06;;;;;;;44.03;28.17;;;;;;;5.03;100.00;102583.19;4899135;29;20046;-74
2021/03/07 03:29:52;;;;;;;41.90;29.00;;;;;;;4.78;100.00;102584.03;4885392;29;20025;-74
2021/03/07 03:32:39;;;;;;;42.55;29.00;;;;;;;4.73;100.00;102576.91;4898420;29;20131;-74
2021/03/07 03:35:25;;;;;;;44.58;29.60;;;;;;;4.79;100.00;102579.75;4897536;29;20040;-73
2021/03/07 03:38:11;;;;;;;43.33;29.10;;;;;;;4.76;100.00;102588.31;4898270;29;20024;-73
2021/03/07 03:40:57;;;;;;;45.22;29.35;;;;;;;4.48;100.00;102582.94;4897425;29;20043;-74
2021/03/07 03:43:46;;;;;;;46.08;31.48;;;;;;;4.56;100.00;102576.34;4899873;29;20501;-73
2021/03/07 03:46:37;;;;;;;43.15;29.30;;;;;;;4.65;100.00;102586.13;4900253;29;20036;-73
2021/03/07 03:49:25;;;;;;;42.08;28.95;;;;;;;4.87;100.00;102581.75;4898619;29;20029;-73
2021/03/07 03:52:14;;;;;;;44.22;29.83;;;;;;;4.33;100.00;102574.59;4898564;29;20449;-74
2021/03/07 03:55:08;;;;;;;44.58;29.02;;;;;;;3.78;100.00;102582.81;4886291;29;20040;-75
2021/03/07 03:58:04;;;;;;;45.10;30.13;;;;;;;4.24;100.00;102579.44;4897933;29;20454;-74
2021/03/07 04:00:53;;;;;;;47.28;30.90;;;;;;;4.11;100.00;102576.31;4901926;29;20107;-75
2021/03/07 04:03:40;;;;;;;44.00;29.15;;;;;;;4.47;100.00;102573.38;4901453;29;20123;-74
2021/03/07 04:06:27;;;;;;;50.92;31.63;;;;;;;4.49;100.00;102570.84;4901251;29;20020;-74
2021/03/07 04:09:13;;;;;;;47.00;32.38;;;;;;;4.51;100.00;102570.06;4901695;29;20423;-73
2021/03/07 04:11:59;;;;;;;49.00;31.80;;;;;;;4.73;100.00;102572.63;4888208;29;20039;-73
2021/03/07 04:14:46;;;;;;;63.28;42.60;;;;;;;4.66;100.00;102567.13;4902151;29;20052;-74
2021/03/07 04:17:32;;;;;;;53.08;34.55;;;;;;;4.70;100.00;102566.41;4900644;29;20064;-74
2021/03/07 04:20:18;;;;;;;52.40;35.30;;;;;;;4.72;100.00;102567.38;4903335;29;20458;-73
2021/03/07 04:23:04;;;;;;;52.63;34.10;;;;;;;4.66;100.00;102565.44;4888005;29;20041;-74
2021/03/07 04:25:50;;;;;;;49.30;33.90;;;;;;;4.86;100.00;102566.13;4903102;29;20028;-74
2021/03/07 04:28:36;;;;;;;51.10;34.72;;;;;;;4.53;100.00;102571.03;4902576;29;20113;-74
2021/03/07 04:31:22;;;;;;;53.10;35.53;;;;;;;4.12;100.00;102562.53;4901160;29;20040;-74
2021/03/07 04:34:08;;;;;;;61.78;40.05;;;;;;;4.20;100.00;102559.41;4902136;29;20089;-73
2021/03/07 04:36:54;;;;;;;56.90;37.72;;;;;;;4.55;100.00;102551.19;4900811;29;20505;-76
2021/03/07 04:39:40;;;;;;;56.70;35.70;;;;;;;4.69;100.00;102556.88;4901182;29;20032;-74
2021/03/07 04:42:27;;;;;;;54.30;34.53;;;;;;;4.48;100.00;102563.88;4902095;29;20032;-74
2021/03/07 04:45:14;;;;;;;83.93;46.95;;;;;;;4.50;100.00;102560.50;4901589;29;20111;-74
2021/03/07 04:48:00;;;;;;;70.13;40.85;;;;;;;4.55;100.00;102555.50;4900856;29;20378;-74
2021/03/07 04:50:46;;;;;;;57.60;35.70;;;;;;;4.51;100.00;102559.69;4901338;29;20060;-74
2021/03/07 04:53:32;;;;;;;61.95;37.35;;;;;;;4.69;100.00;102560.34;4901659;29;20377;-75
2021/03/07 04:56:18;;;;;;;57.50;35.78;;;;;;;4.80;100.00;102561.63;4902009;29;20029;-73
2021/03/07 04:59:03;;;;;;;50.15;33.00;;;;;;;4.80;100.00;102564.22;4901101;29;20111;-74
2021/03/07 05:01:49;;;;;;;49.33;33.55;;;;;;;4.90;100.00;102568.88;4900605;29;20347;-73
2021/03/07 05:04:35;;;;;;;46.63;31.55;;;;;;;4.36;100.00;102569.53;4900789;29;20032;-72
2021/03/07 05:07:23;;;;;;;38.35;25.17;;;;;;;4.02;100.00;102571.66;4901985;29;20025;-74
2021/03/07 05:10:10;;;;;;;40.58;27.15;;;;;;;4.17;100.00;102569.66;4900916;29;20025;-73
2021/03/07 05:12:56;;;;;;;36.80;25.10;;;;;;;4.27;100.00;102568.28;4900102;29;20446;-74
2021/03/07 05:15:41;;;;;;;54.88;33.35;;;;;;;4.55;100.00;102569.34;4887966;29;20518;-74
2021/03/07 05:18:27;;;;;;;50.90;33.25;;;;;;;4.83;100.00;102571.22;4887776;29;20032;-74
2021/03/07 05:21:13;;;;;;;101.50;69.65;;;;;;;4.48;100.00;102569.97;4900787;29;20047;-74
2021/03/07 05:24:00;;;;;;;78.07;54.35;;;;;;;4.74;100.00;102566.59;4900017;29;20091;-74
2021/03/07 05:26:46;;;;;;;58.15;40.47;;;;;;;4.94;100.00;102562.97;4900771;29;20064;-74
2021/03/07 05:29:33;;;;;;;51.35;37.08;;;;;;;4.95;100.00;102563.88;4899723;29;20032;-74
2021/03/07 05:32:19;;;;;;;57.88;40.00;;;;;;;5.26;100.00;102561.44;4900252;29;20382;-74
2021/03/07 05:35:05;;;;;;;54.65;38.10;;;;;;;4.90;100.00;102563.69;4899226;29;20037;-73
2021/03/07 05:37:51;;;;;;;64.30;40.42;;;;;;;5.38;100.00;102561.84;4887289;29;20362;-74
2021/03/07 05:40:37;;;;;;;49.30;34.00;;;;;;;5.18;100.00;102557.72;4900156;29;20039;-74
2021/03/07 05:43:24;;;;;;;57.95;37.42;;;;;;;5.25;100.00;102568.38;4899913;29;20032;-74
2021/03/07 05:46:10;;;;;;;55.08;36.38;;;;;;;5.16;100.00;102565.44;4888363;29;20365;-74
2021/03/07 05:48:56;;;;;;;57.50;36.17;;;;;;;4.70;100.00;102569.91;4900004;29;20043;-74
2021/03/07 05:51:45;;;;;;;52.03;37.00;;;;;;;4.68;100.00;102576.78;4899970;29;20032;-74
2021/03/07 05:54:31;;;;;;;57.40;37.45;;;;;;;4.49;100.00;102571.72;4900512;29;20072;-74
2021/03/07 05:57:21;;;;;;;58.35;38.95;;;;;;;4.80;100.00;102564.22;4899835;29;20023;-74
2021/03/07 06:00:07;;;;;;;61.72;37.83;;;;;;;4.81;100.00;102560.78;4900351;29;20060;-75
2021/03/07 06:02:54;;;;;;;63.35;40.05;;;;;;;4.28;100.00;102568.34;4899377;29;20508;-74
2021/03/07 06:05:41;;;;;;;62.08;39.47;;;;;;;4.56;100.00;102567.66;4900365;29;20422;-74
2021/03/07 06:08:26;;;;;;;57.80;39.20;;;;;;;4.55;100.00;102564.16;4899830;29;20043;-74
2021/03/07 06:11:32;;;;;;;89.63;56.10;;;;;;;4.68;100.00;102562.91;4900689;29;20028;-74
2021/03/07 06:14:26;;;;;;;62.45;40.03;;;;;;;4.54;100.00;102557.19;4899045;29;20028;-74
2021/03/07 06:17:14;;;;;;;61.53;40.45;;;;;;;4.83;100.00;102560.84;4899422;29;20118;-74
2021/03/07 06:20:03;;;;;;;60.00;40.53;;;;;;;4.83;100.00;102558.25;4899293;29;20032;-74
2021/03/07 06:22:59;;;;;;;61.95;41.33;;;;;;;5.00;100.00;102558.00;4898175;29;20040;-74
2021/03/07 06:25:50;;;;;;;54.00;35.38;;;;;;;5.04;100.00;102549.50;4900446;29;20056;-74
2021/03/07 06:28:36;;;;;;;53.92;36.35;;;;;;;4.30;100.00;102552.84;4898851;29;20032;-73
2021/03/07 06:31:31;;;;;;;52.80;35.13;;;;;;;4.70;100.00;102551.72;4898812;29;20036;-74
2021/03/07 06:34:17;;;;;;;55.33;37.45;;;;;;;4.93;100.00;102544.72;4886893;29;20040;-73
2021/03/07 06:37:04;;;;;;;51.70;35.20;;;;;;;4.77;100.00;102548.53;4898814;29;20060;-74
2021/03/07 06:39:51;;;;;;;50.10;34.75;;;;;;;4.93;100.00;102545.63;4899701;29;20040;-74
2021/03/07 06:42:43;;;;;;;56.05;37.08;;;;;;;5.31;100.00;102539.97;4898390;29;20060;-74
2021/03/07 06:45:40;;;;;;;52.15;32.38;;;;;;;5.22;100.00;102539.69;4899947;29;20029;-74
2021/03/07 06:48:35;;;;;;;47.63;31.45;;;;;;;5.40;100.00;102540.28;4900039;29;20417;-74
2021/03/07 06:51:32;;;;;;;47.13;32.60;;;;;;;5.23;100.00;102536.25;4899401;29;20055;-76
2021/03/07 06:54:20;;;;;;;45.55;31.95;;;;;;;5.83;100.00;102541.69;4885217;29;20354;-73
2021/03/07 06:57:07;;;;;;;42.88;30.00;;;;;;;5.92;100.00;102542.84;4899410;29;20425;-73
2021/03/07 06:59:53;;;;;;;43.53;29.73;;;;;;;5.85;100.00;102534.78;4886147;29;20175;-73
2021/03/07 07:02:38;;;;;;;39.83;26.73;;;;;;;5.44;100.00;102543.88;4899007;29;20064;-73
2021/03/07 07:05:35;;;;;;;34.13;23.98;;;;;;;5.92;100.00;102536.75;4885603;29;20035;-73
2021/03/07 07:08:45;;;;;;;28.17;19.27;;;;;;;5.33;100.00;102534.84;4886231;29;20032;-74
2021/03/07 07:11:41;;;;;;;99.57;43.35;;;;;;;5.84;100.00;102538.22;4899324;29;20054;-74
2021/03/07 07:14:42;;;;;;;38.13;23.88;;;;;;;6.03;100.00;102525.81;4885940;29;20036;-73
2021/03/07 07:17:28;;;;;;;29.65;21.13;;;;;;;6.39;100.00;102528.63;4898646;29;20051;-74
2021/03/07 07:20:14;;;;;;;35.50;19.50;;;;;;;6.46;100.00;102528.81;4886440;29;20068;-74
2021/03/07 07:22:59;;;;;;;29.88;19.40;;;;;;;6.65;100.00;102525.00;4897763;29;20065;-74
2021/03/07 07:25:45;;;;;;;25.95;18.00;;;;;;;6.62;100.00;102520.59;4898203;29;20041;-74
2021/03/07 07:28:32;;;;;;;26.55;17.48;;;;;;;6.13;100.00;102527.88;4898581;29;20024;-74
2021/03/07 07:31:45;;;;;;;34.65;20.42;;;;;;;6.74;100.00;102520.03;4888897;29;20362;-73
2021/03/07 07:34:43;;;;;;;37.47;25.42;;;;;;;7.00;100.00;102513.78;4900331;29;20033;-73
2021/03/07 07:37:38;;;;;;;42.88;28.17;;;;;;;6.84;100.00;102515.13;4903780;29;20175;-74
2021/03/07 07:40:38;;;;;;;39.63;24.02;;;;;;;6.72;100.00;102503.50;4900779;29;20357;-73
2021/03/07 07:43:25;;;;;;;27.15;19.70;;;;;;;6.83;100.00;102499.44;4900368;29;20024;-73
2021/03/07 07:46:12;;;;;;;23.88;16.95;;;;;;;7.15;100.00;102498.53;4898868;29;20044;-73
2021/03/07 07:48:59;;;;;;;18.05;12.48;;;;;;;6.76;100.00;102501.03;4898514;29;20040;-73
2021/03/07 07:51:45;;;;;;;17.85;12.30;;;;;;;6.75;100.00;102495.75;4899379;29;20033;-73
2021/03/07 07:55:08;;;;;;;18.98;12.68;;;;;;;6.68;100.00;102492.13;4898566;29;20021;-74
2021/03/07 07:57:54;;;;;;;21.48;13.30;;;;;;;7.27;100.00;102483.19;4829026;29;20524;-73
2021/03/07 08:00:49;;;;;;;23.73;12.68;;;;;;;6.95;100.00;102479.78;4899277;29;20116;-73
2021/03/07 08:03:41;;;;;;;20.63;12.70;;;;;;;6.88;100.00;102474.38;4885596;29;20052;-73
2021/03/07 08:06:26;;;;;;;17.50;12.43;;;;;;;6.88;100.00;102463.97;4897922;29;20100;-73
2021/03/07 08:09:41;;;;;;;20.55;13.63;;;;;;;6.78;100.00;102462.84;4898197;29;20047;-73
2021/03/07 08:12:42;;;;;;;16.58;12.10;;;;;;;7.32;100.00;102458.13;4898235;29;20028;-73
2021/03/07 08:15:27;;;;;;;21.50;13.93;;;;;;;7.32;100.00;102452.91;4898168;29;20040;-74
2021/03/07 08:18:17;;;;;;;19.52;12.52;;;;;;;7.38;100.00;102451.31;4897685;29;20411;-74
2021/03/07 08:21:04;;;;;;;17.25;12.82;;;;;;;7.13;100.00;102438.56;4898381;29;20415;-74
2021/03/07 08:24:00;;;;;;;18.30;13.23;;;;;;;7.44;100.00;102437.53;4896753;29;20040;-73
2021/03/07 08:26:46;;;;;;;18.30;12.80;;;;;;;8.04;100.00;102426.66;4899117;29;20438;-73
2021/03/07 08:29:48;;;;;;;17.58;13.13;;;;;;;8.35;100.00;102420.31;4897946;29;20036;-74
2021/03/07 08:32:42;;;;;;;20.38;14.57;;;;;;;8.72;100.00;102422.75;4897362;29;20069;-73
2021/03/07 08:35:27;;;;;;;17.63;12.88;;;;;;;8.22;100.00;102415.72;4885125;29;20032;-73
2021/03/07 08:38:17;;;;;;;17.80;12.85;;;;;;;8.86;100.00;102413.41;4897761;29;20039;-73
2021/03/07 08:41:03;;;;;;;18.45;13.20;;;;;;;9.49;100.00;102411.78;4885124;29;20032;-73
2021/03/07 08:43:57;;;;;;;18.13;13.88;;;;;;;9.18;100.00;102409.56;4898075;29;20044;-74
2021/03/07 08:46:43;;;;;;;16.65;12.63;;;;;;;9.52;100.00;102407.44;4875392;29;20029;-73
2021/03/07 08:49:31;;;;;;;15.07;11.63;;;;;;;9.57;100.00;102407.53;4900983;29;20446;-73
2021/03/07 08:52:17;;;;;;;15.90;11.98;;;;;;;9.39;100.00;102408.16;4900168;29;20092;-73
2021/03/07 08:55:04;;;;;;;15.65;10.98;;;;;;;9.57;100.00;102392.69;4900069;29;20489;-73
2021/03/07 08:57:50;;;;;;;15.27;11.57;;;;;;;9.50;100.00;102390.88;4902346;29;20036;-73
2021/03/07 09:00:44;;;;;;;15.00;10.50;;;;;;;9.88;100.00;102379.13;4900013;29;20373;-73
2021/03/07 09:03:30;;;;;;;16.75;11.63;;;;;;;10.41;100.00;102384.09;4900528;29;20061;-74
2021/03/07 09:06:15;;;;;;;14.38;11.20;;;;;;;9.73;100.00;102373.69;4901006;29;20029;-73
2021/03/07 09:09:19;;;;;;;16.90;11.20;;;;;;;9.47;100.00;102369.00;4901236;29;20045;-74
2021/03/07 09:12:05;;;;;;;12.52;10.35;;;;;;;9.24;100.00;102373.03;4901569;29;20373;-74
2021/03/07 09:14:51;;;;;;;14.02;10.73;;;;;;;9.61;100.00;102364.84;4903076;29;20070;-75
2021/03/07 09:17:37;;;;;;;13.90;10.82;;;;;;;9.07;100.00;102364.06;4891401;29;20033;-74
2021/03/07 09:20:37;;;;;;;13.18;10.88;;;;;;;9.33;100.00;102357.47;4903384;29;20043;-74
2021/03/07 09:23:40;;;;;;;12.45;10.35;;;;;;;9.81;100.00;102350.25;4903987;29;20291;-74
2021/03/07 09:26:26;;;;;;;19.25;12.15;;;;;;;9.88;100.00;102354.66;4901046;29;20028;-74
2021/03/07 09:29:12;;;;;;;13.23;10.07;;;;;;;9.27;100.00;102352.16;4901280;29;20040;-73
2021/03/07 09:31:57;;;;;;;13.65;10.55;;;;;;;9.44;100.00;102351.53;4888524;29;20374;-74
2021/03/07 09:34:43;;;;;;;13.30;10.98;;;;;;;9.36;100.00;102342.69;4900485;29;20040;-74
2021/03/07 09:37:30;;;;;;;14.05;10.05;;;;;;;10.21;100.00;102338.47;4900708;29;20029;-73
2021/03/07 09:40:16;;;;;;;21.45;11.10;;;;;;;9.94;100.00;102336.44;4899864;29;20040;-74
2021/03/07 09:43:10;;;;;;;16.73;11.85;;;;;;;9.61;100.00;102334.28;4900105;29;20033;-73
2021/03/07 09:45:56;;;;;;;17.42;12.00;;;;;;;9.94;100.00;102334.66;4887907;29;20111;-74
2021/03/07 09:48:43;;;;;;;15.55;12.38;;;;;;;10.42;100.00;102336.06;4900108;29;20025;-74
2021/03/07 09:51:35;;;;;;;17.25;13.30;;;;;;;9.46;100.00;102331.50;4901207;29;20374;-74
2021/03/07 09:54:21;;;;;;;16.80;13.35;;;;;;;9.41;100.00;102325.31;4901549;29;20063;-73
2021/03/07 09:57:07;;;;;;;17.63;13.73;;;;;;;9.28;100.00;102323.41;4899110;29;20055;-73
2021/03/07 09:59:53;;;;;;;16.48;13.43;;;;;;;9.29;100.00;102319.06;4899236;29;20470;-73
2021/03/07 10:02:39;;;;;;;17.80;13.00;;;;;;;9.76;100.00;102324.00;4899551;29;20060;-73
2021/03/07 10:05:24;;;;;;;18.70;13.25;;;;;;;9.22;100.00;102322.44;4899355;29;20036;-73
2021/03/07 10:08:23;;;;;;;16.73;13.15;;;;;;;9.15;100.00;102317.97;4900663;29;20037;-74
2021/03/07 10:11:21;;;;;;;17.05;12.95;;;;;;;9.28;100.00;102312.06;4899323;29;20048;-74
2021/03/07 10:14:08;;;;;;;18.20;12.10;;;;;;;9.51;100.00;102305.38;4899655;29;20123;-73
2021/03/07 10:16:55;;;;;;;17.15;12.60;;;;;;;9.55;100.00;102297.59;4899306;29;20032;-73
2021/03/07 10:19:41;;;;;;;17.17;11.68;;;;;;;9.19;100.00;102293.63;4899542;29;20028;-74
2021/03/07 10:22:45;;;;;;;16.95;11.77;;;;;;;9.77;100.00;102296.09;4886860;29;20032;-74
2021/03/07 10:25:34;;;;;;;18.13;12.52;;;;;;;9.63;100.00;102290.72;4899950;29;20056;-74
2021/03/07 10:28:24;;;;;;;17.45;11.90;;;;;;;9.64;99.50;102287.22;4899463;29;20032;-73
2021/03/07 10:31:12;;;;;;;16.70;12.98;;;;;;;9.92;99.91;102283.16;4899356;29;20028;-73
2021/03/07 10:33:58;;;;;;;16.67;12.50;;;;;;;10.09;100.00;102279.88;4899939;29;20107;-72
2021/03/07 10:36:44;;;;;;;15.57;11.82;;;;;;;9.58;100.00;102275.81;4898762;29;20035;-73
2021/03/07 10:39:30;;;;;;;17.00;12.75;;;;;;;9.75;100.00;102269.91;4886666;29;20024;-73
2021/03/07 10:42:16;;;;;;;16.13;12.55;;;;;;;10.19;99.77;102267.75;4898671;29;20036;-73
2021/03/07 10:45:37;;;;;;;18.42;12.30;;;;;;;10.74;97.30;102248.06;4899908;29;20402;-73
2021/03/07 10:48:30;;;;;;;16.02;12.30;;;;;;;9.52;99.50;102246.94;4897764;29;20461;-73
2021/03/07 10:51:16;;;;;;;15.77;11.75;;;;;;;9.16;100.00;102238.66;4899424;29;20055;-73
2021/03/07 10:54:05;;;;;;;15.75;12.25;;;;;;;9.65;100.00;102233.16;4898316;29;20059;-74
2021/03/07 10:56:51;;;;;;;15.90;11.35;;;;;;;9.76;100.00;102231.50;4898874;29;20043;-74
2021/03/07 10:59:38;;;;;;;18.05;11.00;;;;;;;10.11;99.09;102224.91;4899238;29;20040;-74
2021/03/07 11:02:24;;;;;;;18.10;10.85;;;;;;;10.51;95.42;102216.47;4898816;29;20147;-74
2021/03/07 11:05:14;;;;;;;14.60;10.57;;;;;;;10.17;93.13;102208.34;4899250;29;20107;-74
2021/03/07 11:07:59;;;;;;;15.43;10.50;;;;;;;10.77;94.27;102203.53;4901100;29;20124;-74
2021/03/07 11:10:45;;;;;;;16.73;10.10;;;;;;;10.81;88.86;102194.81;4898995;29;20369;-73
2021/03/07 11:13:32;;;;;;;16.40;11.40;;;;;;;11.00;90.31;102191.38;4898806;29;20032;-74
2021/03/07 11:16:18;;;;;;;15.43;11.80;;;;;;;11.02;91.96;102187.94;4885683;29;20038;-73
2021/03/07 11:19:03;;;;;;;14.65;11.30;;;;;;;10.62;93.67;102185.09;4899100;29;20021;-73
2021/03/07 11:21:49;;;;;;;15.00;11.30;;;;;;;10.11;95.39;102180.38;4898329;29;20040;-73
2021/03/07 11:24:36;;;;;;;19.58;12.88;;;;;;;10.64;94.54;102167.66;4897629;29;20024;-73
2021/03/07 11:27:22;;;;;;;19.98;12.43;;;;;;;10.27;96.66;102169.16;4885768;29;20036;-73
2021/03/07 11:30:09;;;;;;;16.35;11.48;;;;;;;10.98;89.79;102162.56;4885130;29;20032;-73
2021/03/07 11:32:56;;;;;;;15.43;10.73;;;;;;;11.11;88.22;102156.47;4899287;29;20036;-74
2021/03/07 11:35:42;;;;;;;15.52;10.35;;;;;;;11.41;81.12;102150.44;4897274;29;20522;-73
2021/03/07 11:38:28;;;;;;;15.00;11.38;;;;;;;10.74;84.63;102145.84;4898987;29;20040;-73
2021/03/07 11:41:14;;;;;;;13.60;10.40;;;;;;;10.97;85.79;102137.19;4899590;29;20099;-72
2021/03/07 11:44:00;;;;;;;12.98;10.10;;;;;;;10.69;82.61;102123.97;4905784;29;20028;-73
2021/03/07 11:46:47;;;;;;;15.02;11.20;;;;;;;10.24;91.65;102129.81;4892297;29;20028;-73
2021/03/07 11:49:33;;;;;;;15.57;11.98;;;;;;;10.57;94.48;102121.28;4905471;29;20104;-73
2021/03/07 11:52:19;;;;;;;15.45;12.25;;;;;;;10.45;98.94;102111.59;4898537;29;20470;-73
2021/03/07 11:55:06;;;;;;;17.58;13.02;;;;;;;10.76;99.65;102104.78;4898585;29;20037;-73
2021/03/07 11:57:51;;;;;;;18.75;13.43;;;;;;;11.28;96.33;102096.16;4888287;29;20021;-72
2021/03/07 12:00:37;;;;;;;17.48;14.18;;;;;;;11.35;97.85;102084.81;4901711;29;20029;-73
2021/03/07 12:03:23;;;;;;;19.55;14.63;;;;;;;10.91;98.05;102078.59;4900000;29;20390;-73
2021/03/07 12:06:09;;;;;;;20.50;15.65;;;;;;;10.52;99.16;102075.84;4898396;29;20036;-73
2021/03/07 12:08:55;;;;;;;19.55;15.18;;;;;;;10.91;97.39;102069.00;4899020;29;20418;-73
2021/03/07 12:11:41;;;;;;;19.63;14.88;;;;;;;10.79;98.45;102062.81;4897494;29;20032;-73
2021/03/07 12:14:26;;;;;;;19.77;13.98;;;;;;;10.60;97.68;102058.41;4899967;29;20112;-74
2021/03/07 12:17:12;;;;;;;21.02;15.68;;;;;;;10.44;98.60;102065.31;4898529;29;20533;-73
2021/03/07 12:19:58;;;;;;;21.05;14.95;;;;;;;10.21;100.00;102053.88;4886230;29;20029;-73
2021/03/07 12:22:46;;;;;;;20.85;15.50;;;;;;;10.24;100.00;102053.88;4902041;29;20071;-73
2021/03/07 12:25:32;;;;;;;20.13;15.48;;;;;;;10.49;100.00;102052.25;4900908;29;20127;-72
2021/03/07 12:28:17;;;;;;;19.02;14.48;;;;;;;10.71;99.09;102052.34;4888602;29;20060;-72
2021/03/07 12:31:03;;;;;;;20.63;14.88;;;;;;;10.85;98.10;102047.13;4901794;29;20052;-73
2021/03/07 12:33:49;;;;;;;17.95;13.52;;;;;;;10.78;94.86;102042.72;4888530;29;20032;-74
2021/03/07 12:36:35;;;;;;;18.30;13.43;;;;;;;10.74;92.82;102047.09;4901425;29;20359;-75
2021/03/07 12:39:20;;;;;;;18.05;13.68;;;;;;;10.28;94.72;102039.06;4903173;29;20099;-74
2021/03/07 12:42:06;;;;;;;17.60;12.25;;;;;;;10.10;96.45;102042.47;4900475;29;20043;-73
2021/03/07 12:44:53;;;;;;;18.75;13.23;;;;;;;10.70;95.61;102031.34;4901241;29;20581;-74